LIPL/QBS METAR and TAF weather

Enter ICAO airport designator
Station Type Date Time Source
LIPL METAR 2022/08/13 11:55 UTC NOAA

LIPL 131155Z 23004KT CAVOK 27/13 Q1014


Station Type Date Time Source
LIPL Decoded METAR 2022/08/13 11:55 UTC NOAA

Brescia / Ghedi, Italy (LIPL) 45-25N 010-17E 97M
Aug 13, 2022 - 07:55 AM EDT / 2022.08.13 1155 UTC
Wind: from the SW (230 degrees) at 5 MPH (4 KT):0
Visibility: greater than 7 mile(s):0
Temperature: 80 F (27 C)
Dew Point: 55 F (13 C)
Relative Humidity: 41%
Pressure (altimeter): 29.94 in. Hg (1014 hPa)
ob: LIPL 131155Z 23004KT CAVOK 27/13 Q1014
cycle: 12

Station Type Date Time Source
LIPL TAF 2022/06/07 18:24 UTC NOAA

TAF TAF LIPL 071700Z 0718/0806 09009KT 9999 FEW035

Example: see airport list